createdAt,value
2019-06-08T00:01:22.867Z,93.80
2019-06-08T00:03:52.967Z,93.40
2019-06-08T00:06:23.007Z,93.50
2019-06-08T00:11:28.231Z,93.50
2019-06-08T00:13:58.271Z,93.10
2019-06-08T00:16:28.186Z,93.70
2019-06-08T00:18:58.202Z,93.80
2019-06-08T00:21:28.001Z,93.50
2019-06-08T00:23:57.936Z,93.60
2019-06-08T00:26:27.998Z,93.70
2019-06-08T00:28:57.877Z,93.10
2019-06-08T00:31:27.962Z,93.70
2019-06-08T00:33:57.780Z,93.30
2019-06-08T00:36:27.805Z,92.20
2019-06-08T00:38:57.706Z,91.50
2019-06-08T00:41:27.724Z,91.70
2019-06-08T00:43:57.531Z,91.30
2019-06-08T00:46:27.586Z,89.90
2019-06-08T00:48:57.601Z,88.40
2019-06-08T00:51:27.701Z,88.30
2019-06-08T00:53:57.418Z,86.50
2019-06-08T00:56:27.130Z,85.60
2019-06-08T00:58:56.839Z,85.30
2019-06-08T01:01:28.203Z,85.60
2019-06-08T01:03:58.203Z,84.80
2019-06-08T01:06:27.915Z,85.70
2019-06-08T01:08:57.624Z,86.40
2019-06-08T01:11:28.796Z,86.20
2019-06-08T01:13:58.682Z,85.90
2019-06-08T01:16:29.262Z,84.80
2019-06-08T01:18:59.198Z,82.90
2019-06-08T01:21:29.960Z,83.30
2019-06-08T01:23:59.886Z,81.50
2019-06-08T01:26:30.185Z,84.10
2019-06-08T01:29:00.153Z,83.00
2019-06-08T01:31:30.522Z,81.30
2019-06-08T01:34:00.759Z,79.60
2019-06-08T01:36:31.207Z,81.70
2019-06-08T01:39:01.400Z,81.10
2019-06-08T01:41:32.220Z,78.30
2019-06-08T01:44:02.063Z,80.90
2019-06-08T01:46:32.381Z,80.40
2019-06-08T01:49:02.380Z,78.20
2019-06-08T01:51:32.768Z,76.20
2019-06-08T01:54:02.543Z,77.30
2019-06-08T01:56:33.315Z,75.10
2019-06-08T01:59:03.503Z,75.00
2019-06-08T02:01:34.119Z,74.70
2019-06-08T02:04:04.215Z,76.50
2019-06-08T02:06:34.695Z,75.30
2019-06-08T02:09:04.840Z,73.30
2019-06-08T02:11:35.008Z,74.60
2019-06-08T02:14:04.813Z,73.10
2019-06-08T02:16:35.346Z,73.30
2019-06-08T02:19:05.659Z,73.50
2019-06-08T02:21:35.551Z,74.70
2019-06-08T02:24:05.592Z,76.40
2019-06-08T02:26:36.394Z,75.40
2019-06-08T02:29:06.240Z,73.60
2019-06-08T02:31:37.701Z,74.40
2019-06-08T02:34:07.755Z,75.60
2019-06-08T02:36:38.899Z,76.30
2019-06-08T02:39:09.112Z,75.60
2019-06-08T02:41:39.988Z,71.80
2019-06-08T02:44:10.276Z,71.50
2019-06-08T02:46:40.486Z,70.50
2019-06-08T02:49:10.386Z,72.10
2019-06-08T02:51:41.181Z,72.70
2019-06-08T02:54:11.407Z,73.00
2019-06-08T02:56:41.215Z,72.70
2019-06-08T02:59:11.376Z,70.90
2019-06-08T03:01:41.391Z,70.80
2019-06-08T03:04:11.607Z,72.00
2019-06-08T03:06:42.869Z,70.00
2019-06-08T03:09:12.774Z,71.00
2019-06-08T03:11:42.997Z,71.30
2019-06-08T03:14:12.915Z,69.90
2019-06-08T03:16:43.308Z,70.20
2019-06-08T03:19:21.881Z,70.10
2019-06-08T03:21:45.837Z,70.10
2019-06-08T03:24:15.645Z,71.60
2019-06-08T03:26:45.653Z,71.50
2019-06-08T03:32:10.109Z,69.40
2019-06-08T03:34:46.808Z,70.10
2019-06-08T03:37:12.246Z,68.70
2019-06-08T03:39:43.015Z,71.80
2019-06-08T03:42:15.661Z,69.00
2019-06-08T03:44:48.870Z,69.90
2019-06-08T03:47:18.808Z,71.20
2019-06-08T03:49:56.734Z,72.00
2019-06-08T03:52:19.449Z,71.20
2019-06-08T03:54:51.737Z,71.50
2019-06-08T03:57:20.066Z,69.00
2019-06-08T03:59:49.874Z,67.50
2019-06-08T04:02:19.759Z,68.20
2019-06-08T04:04:49.982Z,66.90
2019-06-08T04:07:20.565Z,68.10
2019-06-08T04:09:51.065Z,66.30
2019-06-08T04:12:21.023Z,66.00
2019-06-08T04:14:50.567Z,64.00
2019-06-08T04:17:20.137Z,65.70
2019-06-08T04:20:09.442Z,66.60
2019-06-08T04:22:20.755Z,66.90
2019-06-08T04:24:50.585Z,66.70
2019-06-08T04:27:20.365Z,68.60
2019-06-08T04:29:50.244Z,65.40
2019-06-08T04:32:19.869Z,65.30
2019-06-08T04:34:49.965Z,63.90
2019-06-08T04:37:19.684Z,65.70
2019-06-08T04:39:50.840Z,67.70
2019-06-08T04:42:20.395Z,66.30
2019-06-08T04:44:50.833Z,66.10
2019-06-08T04:47:20.381Z,67.10
2019-06-08T04:53:13.286Z,63.70
2019-06-08T04:55:44.984Z,64.70
2019-06-08T04:58:14.669Z,65.70
2019-06-08T05:00:46.200Z,66.50
2019-06-08T05:03:15.704Z,64.10
2019-06-08T05:05:47.571Z,65.40
2019-06-08T05:08:17.454Z,65.70
2019-06-08T05:10:47.610Z,67.80
2019-06-08T05:13:17.927Z,65.80
2019-06-08T05:15:50.329Z,64.00
2019-06-08T05:18:20.709Z,66.40
2019-06-08T05:20:51.658Z,66.20
2019-06-08T05:23:21.598Z,66.80
2019-06-08T05:25:51.469Z,66.80
2019-06-08T05:28:21.486Z,66.10
2019-06-08T05:30:51.440Z,68.50
2019-06-08T05:33:21.296Z,68.40
2019-06-08T05:35:51.349Z,65.90
2019-06-08T05:38:21.269Z,65.90
2019-06-08T05:40:51.150Z,68.50
2019-06-08T05:43:21.416Z,66.30
2019-06-08T05:45:51.288Z,66.50
2019-06-08T05:48:41.913Z,65.60
2019-06-08T05:51:11.587Z,66.00
2019-06-08T05:54:03.117Z,65.60
2019-06-08T05:56:33.057Z,66.00
2019-06-08T05:59:02.763Z,68.80
2019-06-08T06:01:53.182Z,66.80
2019-06-08T06:04:22.897Z,65.30
2019-06-08T06:06:53.086Z,64.30
2019-06-08T06:09:22.936Z,64.90
2019-06-08T06:11:52.921Z,64.80
2019-06-08T06:14:22.813Z,67.90
2019-06-08T06:16:52.839Z,65.80
2019-06-08T06:19:22.972Z,63.60
2019-06-08T06:21:52.868Z,64.20
2019-06-08T06:24:22.779Z,68.20
2019-06-08T06:26:52.805Z,64.90
2019-06-08T06:29:22.750Z,64.10
2019-06-08T06:31:52.385Z,64.60
2019-06-08T06:34:22.574Z,65.30
2019-06-08T06:36:52.325Z,64.30
2019-06-08T06:39:22.377Z,63.10
2019-06-08T06:41:52.269Z,64.70
2019-06-08T06:44:21.951Z,65.20
2019-06-08T06:46:52.464Z,63.60
2019-06-08T06:49:22.354Z,64.40
2019-06-08T06:51:52.754Z,64.10
2019-06-08T06:54:22.600Z,64.00
2019-06-08T06:56:53.946Z,62.30
2019-06-08T06:59:23.963Z,62.50
2019-06-08T07:01:57.268Z,63.50
2019-06-08T07:04:24.916Z,64.90
2019-06-08T07:06:55.111Z,64.60
2019-06-08T07:09:25.073Z,63.60
2019-06-08T07:11:56.631Z,64.00
2019-06-08T07:14:26.311Z,63.30
2019-06-08T07:16:56.123Z,63.50
2019-06-08T07:19:26.339Z,62.60
2019-06-08T07:21:56.163Z,62.30
2019-06-08T07:24:46.780Z,61.80
2019-06-08T07:27:16.963Z,63.50
2019-06-08T07:29:47.200Z,60.70
2019-06-08T07:32:17.430Z,62.40
2019-06-08T07:34:47.843Z,59.30
2019-06-08T07:37:18.069Z,59.70
2019-06-08T07:39:48.876Z,61.90
2019-06-08T07:42:19.127Z,62.60
2019-06-08T07:44:50.817Z,62.10
2019-06-08T07:47:21.095Z,61.10
2019-06-08T07:49:51.163Z,62.20
2019-06-08T07:52:20.937Z,65.30
2019-06-08T07:54:50.984Z,60.90
2019-06-08T07:57:20.972Z,61.80
2019-06-08T07:59:52.755Z,61.80
2019-06-08T08:02:21.621Z,63.30
2019-06-08T08:04:52.495Z,62.90
2019-06-08T08:07:23.190Z,63.80
2019-06-08T08:09:53.186Z,62.70
2019-06-08T08:12:23.023Z,63.80
2019-06-08T08:14:53.303Z,65.30
2019-06-08T08:17:23.161Z,62.90
2019-06-08T08:19:53.039Z,63.30
2019-06-08T08:22:25.896Z,64.20
2019-06-08T08:24:55.700Z,63.00
2019-06-08T08:27:24.758Z,64.90
2019-06-08T08:29:55.354Z,63.10
2019-06-08T08:32:25.099Z,64.10
2019-06-08T08:34:56.472Z,63.10
2019-06-08T08:37:27.995Z,64.10
2019-06-08T08:39:59.863Z,61.20
2019-06-08T08:42:30.092Z,64.30
2019-06-08T08:45:03.495Z,63.10
2019-06-08T08:47:30.766Z,61.40
2019-06-08T08:50:01.987Z,62.20
2019-06-08T08:52:36.904Z,62.30
2019-06-08T08:55:02.730Z,62.30
2019-06-08T08:57:32.642Z,62.00
2019-06-08T09:00:04.984Z,62.90
2019-06-08T09:02:33.395Z,63.00
2019-06-08T09:05:03.748Z,63.50
2019-06-08T09:07:33.749Z,63.90
2019-06-08T09:10:04.172Z,63.20
2019-06-08T09:12:34.302Z,63.80
2019-06-08T09:15:04.198Z,62.90
2019-06-08T09:17:34.406Z,62.00
2019-06-08T09:20:11.035Z,62.50
2019-06-08T09:22:53.010Z,62.00
2019-06-08T09:25:09.293Z,61.40
2019-06-08T09:27:39.305Z,61.70
2019-06-08T09:30:09.021Z,63.60
2019-06-08T09:32:39.113Z,62.90
2019-06-08T09:35:09.364Z,63.70
2019-06-08T09:37:39.228Z,64.10
2019-06-08T09:40:08.890Z,64.50
2019-06-08T09:42:38.981Z,65.60
2019-06-08T09:45:10.525Z,64.00
2019-06-08T09:47:40.569Z,62.60
2019-06-08T09:50:10.125Z,64.80
2019-06-08T09:52:41.384Z,62.20
2019-06-08T09:55:11.430Z,64.20
2019-06-08T09:57:41.345Z,65.40
2019-06-08T10:00:17.852Z,64.50
2019-06-08T10:02:42.402Z,65.30
2019-06-08T10:05:12.221Z,64.70
2019-06-08T10:07:42.108Z,64.90
2019-06-08T10:10:12.153Z,64.10
2019-06-08T10:12:42.065Z,63.60
2019-06-08T10:15:12.590Z,64.60
2019-06-08T10:17:42.559Z,64.30
2019-06-08T10:20:12.317Z,64.60
2019-06-08T10:22:42.345Z,65.00
2019-06-08T10:25:12.234Z,65.30
2019-06-08T10:27:42.353Z,65.10
2019-06-08T10:30:12.074Z,65.40
2019-06-08T10:32:42.012Z,66.30
2019-06-08T10:35:12.216Z,66.30
2019-06-08T10:37:42.149Z,67.00
2019-06-08T10:40:11.838Z,67.30
2019-06-08T10:42:41.940Z,67.40
2019-06-08T10:45:14.357Z,67.90
2019-06-08T10:47:43.129Z,67.30
2019-06-08T10:50:15.352Z,67.00
2019-06-08T10:52:44.584Z,67.40
2019-06-08T10:55:14.520Z,67.60
2019-06-08T10:57:44.417Z,67.90
2019-06-08T11:00:23.281Z,67.80
2019-06-08T11:02:48.704Z,68.60
2019-06-08T11:05:18.065Z,68.20
2019-06-08T11:07:48.141Z,68.80
2019-06-08T11:10:19.149Z,69.00
2019-06-08T11:12:49.415Z,68.40
2019-06-08T11:15:19.633Z,68.30
2019-06-08T11:17:49.781Z,68.30
2019-06-08T11:20:19.585Z,68.30
2019-06-08T11:22:50.104Z,68.30
2019-06-08T11:25:20.370Z,68.60
2019-06-08T11:27:50.380Z,68.70
2019-06-08T11:30:26.745Z,69.00
2019-06-08T11:32:53.101Z,69.10
2019-06-08T11:35:23.077Z,69.20
2019-06-08T11:40:28.617Z,70.70
2019-06-08T11:42:58.659Z,69.70
2019-06-08T11:45:29.759Z,69.60
2019-06-08T11:48:00.477Z,69.20
2019-06-08T11:50:39.062Z,70.60
2019-06-08T11:53:12.668Z,71.50
2019-06-08T11:55:39.628Z,71.80
2019-06-08T11:58:11.821Z,72.40
2019-06-08T12:00:53.543Z,72.80
2019-06-08T12:03:23.179Z,73.40
2019-06-08T12:05:53.219Z,73.60
2019-06-08T12:08:22.985Z,73.70
2019-06-08T12:10:52.685Z,74.20
2019-06-08T12:13:22.603Z,74.40
2019-06-08T12:15:52.319Z,74.70
2019-06-08T12:18:22.442Z,74.80
2019-06-08T12:20:53.738Z,75.30
2019-06-08T12:23:25.845Z,75.30
2019-06-08T12:25:59.137Z,75.70
2019-06-08T12:28:32.153Z,75.70
2019-06-08T12:31:04.633Z,76.20
2019-06-08T12:33:41.709Z,76.20
2019-06-08T12:36:13.577Z,76.00
2019-06-08T12:38:42.643Z,76.10
2019-06-08T12:41:13.714Z,76.10
2019-06-08T12:43:48.703Z,76.20
2019-06-08T12:46:20.998Z,76.10
2019-06-08T12:48:50.076Z,76.50
2019-06-08T12:51:21.438Z,76.10
2019-06-08T12:53:53.169Z,75.20
2019-06-08T12:56:24.146Z,75.00
2019-06-08T12:58:58.130Z,74.70
2019-06-08T13:01:28.287Z,74.60
2019-06-08T13:03:59.398Z,74.60
2019-06-08T13:06:29.636Z,74.40
2019-06-08T13:08:59.425Z,74.50
2019-06-08T13:11:29.134Z,74.50
2019-06-08T13:13:58.843Z,74.60
2019-06-08T13:16:29.271Z,75.50
2019-06-08T13:18:59.390Z,75.00
2019-06-08T13:21:34.957Z,75.60
2019-06-08T13:24:01.515Z,75.90
2019-06-08T13:26:31.488Z,76.90
2019-06-08T13:29:01.360Z,75.70
2019-06-08T13:31:32.755Z,75.70
2019-06-08T13:34:02.473Z,76.00
2019-06-08T13:36:32.991Z,75.10
2019-06-08T13:39:02.878Z,74.70
2019-06-08T13:41:32.981Z,74.70
2019-06-08T13:44:03.248Z,74.50
2019-06-08T13:46:32.956Z,75.70
2019-06-08T13:49:02.665Z,75.10
2019-06-08T13:51:33.970Z,75.30
2019-06-08T13:54:03.728Z,75.80
2019-06-08T13:56:33.542Z,76.00
2019-06-08T13:59:03.346Z,76.30
2019-06-08T14:01:33.934Z,76.70
2019-06-08T14:04:03.791Z,76.10
2019-06-08T14:06:33.791Z,76.50
2019-06-08T14:09:03.626Z,76.30
2019-06-08T14:11:34.694Z,76.10
2019-06-08T14:14:04.680Z,76.50
2019-06-08T14:16:34.491Z,76.70
2019-06-08T14:19:04.303Z,76.90
2019-06-08T14:21:38.726Z,77.10
2019-06-08T14:24:07.602Z,78.50
2019-06-08T14:26:37.638Z,77.80
2019-06-08T14:29:08.336Z,77.80
2019-06-08T14:31:39.714Z,78.30
2019-06-08T14:34:10.357Z,78.40
2019-06-08T14:36:41.028Z,78.60
2019-06-08T14:39:11.478Z,78.90
2019-06-08T14:41:41.623Z,79.80
2019-06-08T14:44:12.355Z,79.70
2019-06-08T14:46:42.076Z,80.00
2019-06-08T14:49:11.883Z,80.30
2019-06-08T14:51:54.289Z,80.60
2019-06-08T14:54:30.881Z,80.60
2019-06-08T14:56:58.069Z,80.90
2019-06-08T14:59:30.448Z,81.80
2019-06-08T15:02:00.906Z,81.60
2019-06-08T15:04:35.979Z,81.40
2019-06-08T15:07:03.456Z,82.10
2019-06-08T15:09:37.427Z,82.00
2019-06-08T15:12:09.228Z,82.10
2019-06-08T15:14:40.730Z,82.40
2019-06-08T15:17:10.740Z,82.80
2019-06-08T15:19:40.446Z,82.90
2019-06-08T15:22:11.239Z,83.00
2019-06-08T15:24:41.399Z,82.70
2019-06-08T15:27:11.315Z,82.80
2019-06-08T15:29:41.127Z,83.10
2019-06-08T15:32:10.838Z,83.50
2019-06-08T15:34:41.423Z,83.50
2019-06-08T15:37:11.414Z,83.70
2019-06-08T15:39:41.096Z,83.30
2019-06-08T15:42:11.626Z,84.10
2019-06-08T15:44:41.637Z,84.40
2019-06-08T15:47:11.348Z,84.50
2019-06-08T15:49:41.158Z,84.70
2019-06-08T15:52:10.873Z,85.10
2019-06-08T15:54:41.091Z,85.50
2019-06-08T15:57:10.908Z,85.70
2019-06-08T15:59:41.831Z,85.80
2019-06-08T16:02:11.965Z,86.30
2019-06-08T16:04:41.554Z,86.20
2019-06-08T16:07:11.302Z,86.40
2019-06-08T16:09:40.991Z,87.00
2019-06-08T16:12:10.803Z,87.60
2019-06-08T16:14:41.517Z,88.10
2019-06-08T16:17:11.300Z,88.70
2019-06-08T16:19:40.876Z,88.60
2019-06-08T16:22:10.567Z,89.50
2019-06-08T16:24:40.271Z,89.10
2019-06-08T16:27:09.918Z,88.70
2019-06-08T16:29:40.613Z,87.60
2019-06-08T16:32:10.527Z,87.20
2019-06-08T16:34:41.011Z,86.50
2019-06-08T16:37:10.975Z,84.30
2019-06-08T16:39:40.575Z,85.10
2019-06-08T16:42:10.215Z,84.50
2019-06-08T16:44:40.000Z,84.50
2019-06-08T16:47:09.711Z,84.50
2019-06-08T16:49:39.651Z,83.50
2019-06-08T16:52:09.539Z,83.40
2019-06-08T16:54:39.351Z,83.30
2019-06-08T16:57:10.958Z,83.00
2019-06-08T16:59:40.100Z,84.40
2019-06-08T17:02:10.221Z,83.20
2019-06-08T17:04:40.243Z,82.60
2019-06-08T17:07:09.945Z,82.60
2019-06-08T17:09:40.104Z,82.30
2019-06-08T17:12:10.044Z,83.30
2019-06-08T17:14:40.634Z,82.90
2019-06-08T17:17:10.529Z,82.80
2019-06-08T17:19:40.358Z,82.40
2019-06-08T17:22:10.252Z,82.70
2019-06-08T17:24:40.742Z,81.60
2019-06-08T17:27:25.749Z,82.00
2019-06-08T17:29:41.529Z,81.90
2019-06-08T17:32:11.242Z,80.90
2019-06-08T17:34:42.297Z,81.50
2019-06-08T17:37:11.785Z,81.70
2019-06-08T17:39:42.250Z,81.90
2019-06-08T17:42:12.542Z,82.40
2019-06-08T17:44:42.602Z,83.20
2019-06-08T17:47:12.468Z,82.90
2019-06-08T17:49:42.943Z,83.20
2019-06-08T17:52:13.222Z,83.90
2019-06-08T17:54:43.300Z,83.90
2019-06-08T17:57:13.250Z,84.80
2019-06-08T17:59:42.840Z,85.00
2019-06-08T18:02:18.898Z,85.40
2019-06-08T18:04:44.345Z,84.10
2019-06-08T18:07:17.134Z,85.00
2019-06-08T18:09:48.352Z,84.90
2019-06-08T18:12:18.365Z,85.10
2019-06-08T18:14:48.495Z,85.30
2019-06-08T18:17:18.203Z,86.40
2019-06-08T18:19:49.588Z,86.40
2019-06-08T18:22:18.967Z,86.80
2019-06-08T18:24:48.665Z,86.50
2019-06-08T18:27:18.425Z,86.70
2019-06-08T18:29:48.672Z,86.90
2019-06-08T18:32:18.719Z,87.10
2019-06-08T18:34:48.626Z,87.10
2019-06-08T18:37:18.311Z,87.90
2019-06-08T18:39:49.331Z,87.10
2019-06-08T18:42:19.088Z,86.60
2019-06-08T18:44:48.711Z,87.50
2019-06-08T18:47:18.404Z,85.70
2019-06-08T18:49:48.494Z,85.40
2019-06-08T18:52:18.745Z,85.40
2019-06-08T18:54:49.665Z,85.60
2019-06-08T18:57:19.524Z,85.70
2019-06-08T18:59:52.913Z,85.20
2019-06-08T19:02:20.251Z,86.40
2019-06-08T19:04:50.466Z,86.00
2019-06-08T19:07:20.292Z,86.40
2019-06-08T19:09:49.997Z,87.20
2019-06-08T19:12:19.872Z,86.80
2019-06-08T19:14:52.290Z,87.10
2019-06-08T19:17:21.884Z,87.20
2019-06-08T19:19:52.499Z,87.60
2019-06-08T19:22:22.259Z,87.90
2019-06-08T19:24:51.939Z,88.20
2019-06-08T19:27:21.748Z,87.90
2019-06-08T19:29:51.730Z,88.50
2019-06-08T19:32:21.581Z,87.60
2019-06-08T19:34:53.937Z,87.60
2019-06-08T19:37:22.335Z,87.60
2019-06-08T19:39:52.142Z,88.20
2019-06-08T19:42:35.579Z,88.20
2019-06-08T19:45:01.120Z,88.30
2019-06-08T19:47:23.645Z,88.90
2019-06-08T19:49:54.774Z,88.90
2019-06-08T19:52:24.272Z,88.70
2019-06-08T19:54:54.131Z,88.70
2019-06-08T19:57:23.908Z,88.00
2019-06-08T19:59:53.608Z,89.70
2019-06-08T20:02:23.216Z,89.20
2019-06-08T20:04:53.278Z,89.90
2019-06-08T20:07:23.210Z,90.10
2019-06-08T20:09:53.936Z,90.00
2019-06-08T20:12:23.648Z,90.30
2019-06-08T20:14:53.867Z,90.40
2019-06-08T20:17:23.507Z,90.10
2019-06-08T20:19:53.421Z,88.40
2019-06-08T20:22:23.556Z,88.80
2019-06-08T20:24:55.743Z,89.40
2019-06-08T20:27:24.498Z,90.10
2019-06-08T20:29:54.223Z,90.30
2019-06-08T20:32:23.933Z,90.40
2019-06-08T20:34:53.751Z,90.40
2019-06-08T20:37:23.564Z,90.20
2019-06-08T20:40:04.559Z,90.10
2019-06-08T20:42:24.306Z,90.30
2019-06-08T20:44:53.957Z,90.60
2019-06-08T20:47:23.830Z,90.60
2019-06-08T20:49:53.579Z,90.40
2019-06-08T20:52:23.257Z,90.30
2019-06-08T20:54:53.523Z,90.10
2019-06-08T20:57:23.353Z,90.00
2019-06-08T20:59:54.027Z,90.10
2019-06-08T21:02:24.245Z,90.70
2019-06-08T21:04:54.896Z,91.20
2019-06-08T21:07:24.797Z,91.80
2019-06-08T21:09:55.295Z,92.00
2019-06-08T21:12:28.156Z,91.80
2019-06-08T21:14:56.788Z,92.00
2019-06-08T21:17:27.522Z,91.60
2019-06-08T21:19:57.958Z,91.50
2019-06-08T21:22:28.780Z,91.90
2019-06-08T21:24:59.854Z,92.30
2019-06-08T21:27:29.527Z,92.20
2019-06-08T21:30:06.829Z,92.10
2019-06-08T21:32:30.179Z,91.90
2019-06-08T21:35:00.380Z,92.20
2019-06-08T21:37:30.324Z,92.40
2019-06-08T21:40:03.989Z,92.60
2019-06-08T21:42:30.959Z,92.70
2019-06-08T21:45:02.947Z,92.70
2019-06-08T21:47:32.632Z,92.90
2019-06-08T21:50:02.559Z,93.10
2019-06-08T21:52:32.362Z,93.00
2019-06-08T21:55:02.173Z,93.20
2019-06-08T21:57:31.965Z,93.20
2019-06-08T22:00:21.611Z,93.40
2019-06-08T22:02:32.857Z,93.10
2019-06-08T22:05:04.663Z,93.10
2019-06-08T22:07:33.491Z,93.10
2019-06-08T22:10:03.153Z,93.30
2019-06-08T22:12:32.912Z,93.50
2019-06-08T22:15:03.142Z,93.20
2019-06-08T22:17:33.330Z,93.30
2019-06-08T22:20:03.464Z,93.40
2019-06-08T22:22:33.503Z,93.40
2019-06-08T22:25:03.661Z,93.40
2019-06-08T22:27:33.622Z,93.40
2019-06-08T22:30:09.768Z,93.50
2019-06-08T22:32:38.467Z,93.60
2019-06-08T22:35:08.002Z,93.60
2019-06-08T22:37:38.173Z,93.70
2019-06-08T22:40:08.386Z,93.70
2019-06-08T22:42:38.229Z,93.70
2019-06-08T22:45:08.564Z,93.70
2019-06-08T22:47:38.814Z,93.70
2019-06-08T22:50:08.696Z,93.80
2019-06-08T22:52:38.406Z,93.90
2019-06-08T22:55:10.890Z,93.70
2019-06-08T22:57:39.255Z,93.60
2019-06-08T23:00:17.085Z,93.60
2019-06-08T23:02:40.138Z,93.50
2019-06-08T23:05:09.822Z,93.50
2019-06-08T23:07:40.462Z,93.50
2019-06-08T23:10:10.158Z,93.40
2019-06-08T23:12:39.864Z,93.40
2019-06-08T23:15:10.867Z,93.50
2019-06-08T23:17:40.470Z,93.50
2019-06-08T23:20:10.124Z,93.40
2019-06-08T23:22:39.833Z,93.40
2019-06-08T23:25:09.795Z,93.30
2019-06-08T23:27:39.663Z,93.20
2019-06-08T23:30:10.226Z,92.80
2019-06-08T23:32:40.421Z,92.90
2019-06-08T23:35:10.238Z,92.80
2019-06-08T23:37:39.937Z,92.80
2019-06-08T23:40:09.540Z,92.70
2019-06-08T23:42:39.253Z,92.30
2019-06-08T23:45:10.623Z,92.60
2019-06-08T23:47:40.104Z,92.50
2019-06-08T23:50:11.486Z,92.30
2019-06-08T23:52:40.751Z,92.10
2019-06-08T23:55:11.878Z,91.50
2019-06-08T23:57:41.456Z,91.50
